Time;durP1;ratioP1;P1;durP2;ratioP2;P2;SDS_P1;SDS_P2;PMS_P1;PMS_P2;Temp;Humidity;BMP_temperature;BMP_pressure;BME280_temperature;BME280_humidity;BME280_pressure;Samples;Min_cycle;Max_cycle;Signal;HPM_P1;HPM_P2
2022/01/10 05:15:46;;;;;;;84.32;38.38;;;;;;;-1.63;87.94;99863.66;5558003;32;223825;-90
2022/01/10 05:18:50;;;;;;;87.95;39.40;;;;;;;-1.64;87.93;99872.31;5545669;32;34174;-90
2022/01/10 05:21:53;;;;;;;82.18;38.33;;;;;;;-1.59;87.58;99877.47;5546208;32;34314;-90
2022/01/10 05:24:55;;;;;;;93.07;38.92;;;;;;;-1.58;87.06;99871.41;5551415;32;34449;-89
2022/01/10 05:27:58;;;;;;;81.75;38.03;;;;;;;-1.55;87.13;99872.25;5552143;32;33804;-88
2022/01/10 05:31:01;;;;;;;81.70;38.75;;;;;;;-1.52;86.88;99880.03;5563562;26;33849;-88
2022/01/10 05:34:06;;;;;;;80.87;37.25;;;;;;;-1.49;87.22;99873.94;5566075;32;34121;-88
2022/01/10 05:37:09;;;;;;;78.60;38.30;;;;;;;-1.48;87.10;99873.06;5565347;32;34130;-88
2022/01/10 05:40:12;;;;;;;78.55;37.47;;;;;;;-1.47;87.50;99882.59;5564957;32;33723;-89
2022/01/10 05:43:15;;;;;;;78.10;38.22;;;;;;;-1.42;88.36;99880.81;5565044;32;34066;-89
2022/01/10 05:46:21;;;;;;;77.40;36.67;;;;;;;-1.40;86.80;99886.87;5566564;32;34341;-90
2022/01/10 05:49:32;;;;;;;87.12;38.53;;;;;;;-1.33;87.31;99886.81;5565753;32;33856;-89
2022/01/10 05:52:35;;;;;;;74.62;37.42;;;;;;;-1.33;86.23;99892.00;5565725;32;35127;-90
2022/01/10 05:55:39;;;;;;;77.93;37.40;;;;;;;-1.32;86.03;99885.97;5573333;32;34465;-88
2022/01/10 05:58:42;;;;;;;75.72;37.50;;;;;;;-1.33;86.21;99898.09;5573769;32;33782;-89
2022/01/10 06:01:46;;;;;;;79.50;37.92;;;;;;;-1.31;86.57;99901.53;5567358;32;34769;-88
2022/01/10 06:04:49;;;;;;;77.78;38.28;;;;;;;-1.31;86.52;99896.34;5569483;32;34322;-89
2022/01/10 06:07:52;;;;;;;81.32;36.78;;;;;;;-1.42;87.22;99904.25;5578850;32;34992;-89
2022/01/10 06:10:55;;;;;;;78.18;38.17;;;;;;;-1.49;87.69;99905.16;5580673;32;33770;-89
2022/01/10 06:13:58;;;;;;;76.95;38.80;;;;;;;-1.51;88.17;99906.94;5580366;32;36015;-89
2022/01/10 06:17:02;;;;;;;80.43;39.13;;;;;;;-1.45;88.38;99906.88;5566185;32;33729;-89
2022/01/10 06:20:06;;;;;;;75.68;37.85;;;;;;;-1.52;87.60;99918.19;5565813;32;34846;-89
2022/01/10 06:23:11;;;;;;;76.22;37.45;;;;;;;-1.54;88.10;99914.75;5565480;32;34150;-89
2022/01/10 06:26:14;;;;;;;73.82;37.95;;;;;;;-1.53;88.28;99922.53;5556132;32;34416;-89
2022/01/10 06:29:17;;;;;;;78.85;38.28;;;;;;;-1.44;88.12;99932.03;5552012;32;34227;-89
2022/01/10 06:32:20;;;;;;;81.30;36.58;;;;;;;-1.45;88.29;99926.81;5553939;32;32999;-89
2022/01/10 06:35:24;;;;;;;83.87;38.80;;;;;;;-1.50;88.36;99934.66;5547969;32;33655;-89
2022/01/10 06:38:38;;;;;;;79.90;39.30;;;;;;;-1.55;88.68;99939.87;5552733;32;33866;-89
2022/01/10 06:41:41;;;;;;;83.47;40.35;;;;;;;-1.45;87.89;99948.50;5549213;32;34551;-90
2022/01/10 06:44:45;;;;;;;84.65;38.70;;;;;;;-1.52;87.38;99949.41;5540460;32;33932;-90
2022/01/10 06:47:49;;;;;;;78.10;38.60;;;;;;;-1.51;87.78;99948.56;5572634;26;33896;-90
2022/01/10 06:50:53;;;;;;;77.80;38.85;;;;;;;-1.42;87.45;99952.78;5582884;32;35138;-89
2022/01/10 06:53:56;;;;;;;79.85;38.03;;;;;;;-1.41;87.03;99955.41;5575993;32;35196;-93
2022/01/10 06:57:06;;;;;;;84.20;39.15;;;;;;;-1.47;87.53;99960.66;5586760;26;35086;31
2022/01/10 07:00:12;;;;;;;75.55;38.53;;;;;;;-1.41;87.42;99976.22;5624223;26;35397;-89
2022/01/10 07:03:16;;;;;;;73.87;37.60;;;;;;;-1.44;87.46;99967.56;5544829;32;32646;-89
2022/01/10 07:06:24;;;;;;;81.30;37.97;;;;;;;-1.40;87.09;99964.94;5569186;26;33906;-88
2022/01/10 07:13:10;;;;;;;75.37;36.15;;;;;;;-1.38;86.93;99980.53;1950957;26;20096;-90
2022/01/10 07:16:14;;;;;;;71.65;35.97;;;;;;;-1.28;86.74;99989.12;5604853;26;34170;-88
2022/01/10 07:19:18;;;;;;;78.03;38.28;;;;;;;-1.13;86.73;99991.66;5561528;26;34308;-90
2022/01/10 07:22:22;;;;;;;72.75;37.38;;;;;;;-1.04;86.41;99989.84;5551666;32;34297;-89
2022/01/10 07:29:12;;;;;;;75.72;37.33;;;;;;;-0.90;86.45;99992.31;4966334;29;20159;-89
2022/01/10 07:32:17;;;;;;;75.82;38.42;;;;;;;-0.93;86.28;100001.03;5574028;26;33696;-89
2022/01/10 07:35:19;;;;;;;79.43;36.70;;;;;;;-1.13;87.35;99999.47;5543896;32;34521;-89
2022/01/10 07:38:23;;;;;;;76.20;38.25;;;;;;;-1.15;87.52;100010.75;5538576;32;33987;-90
2022/01/10 07:41:26;;;;;;;70.75;36.50;;;;;;;-1.20;87.98;100017.72;5538641;32;35246;-87
2022/01/10 07:44:29;;;;;;;77.45;37.83;;;;;;;-1.11;87.24;100017.69;5576746;26;34491;-90
2022/01/10 07:47:33;;;;;;;76.60;37.70;;;;;;;-0.98;87.15;100019.31;5616854;26;34493;-89
2022/01/10 07:50:36;;;;;;;74.22;37.00;;;;;;;-0.99;86.85;100017.59;5572164;32;33681;-89
2022/01/10 07:54:02;;;;;;;75.60;37.53;;;;;;;-1.14;87.09;100012.47;5502510;32;33997;-90
2022/01/10 07:57:07;;;;;;;81.32;39.17;;;;;;;-1.08;86.80;100030.66;5504211;32;35252;-90
2022/01/10 08:00:10;;;;;;;75.07;37.78;;;;;;;-1.04;86.82;100024.56;5493359;32;34023;-89
2022/01/10 08:03:14;;;;;;;80.70;37.78;;;;;;;-1.15;87.21;100027.22;5492941;32;33866;-89
2022/01/10 08:06:36;;;;;;;76.25;36.90;;;;;;;-1.12;86.96;100032.41;5492882;32;34074;-87
2022/01/10 08:09:39;;;;;;;76.65;38.33;;;;;;;-1.11;86.63;100039.34;5494715;32;34542;-88
2022/01/10 08:13:03;;;;;;;76.95;37.63;;;;;;;-1.19;87.37;100042.88;5493266;32;34310;-89
2022/01/10 08:16:17;;;;;;;72.62;36.90;;;;;;;-1.26;87.88;100037.72;5495642;32;33991;-90
2022/01/10 08:19:21;;;;;;;81.60;37.50;;;;;;;-1.20;87.79;100038.56;5495871;32;33883;-90
2022/01/10 08:22:24;;;;;;;80.85;37.47;;;;;;;-1.19;87.92;100035.06;5493812;32;33748;-89
2022/01/10 08:25:26;;;;;;;78.97;38.03;;;;;;;-1.13;87.66;100024.59;5556597;26;34224;-89
2022/01/10 08:28:30;;;;;;;77.47;37.22;;;;;;;-1.11;87.30;100031.53;5516874;32;34106;-88
2022/01/10 08:31:34;;;;;;;78.95;37.40;;;;;;;-1.11;87.19;100031.53;5523047;32;34255;-89
2022/01/10 08:34:39;;;;;;;73.30;36.22;;;;;;;-1.03;86.02;100039.31;5514316;32;34093;-91
2022/01/10 08:37:45;;;;;;;77.60;37.33;;;;;;;-0.95;86.24;100042.69;5500946;32;34057;-88
2022/01/10 09:03:27;;;;;;;76.45;37.88;;;;;;;-0.36;82.97;100064.78;5494672;30;20104;-88
2022/01/10 09:10:15;;;;;;;82.32;37.22;;;;;;;-0.28;84.26;100067.31;5472222;32;20112;-88
2022/01/10 09:13:18;;;;;;;76.57;39.03;;;;;;;-0.22;83.64;100067.25;5473728;32;34247;-88
2022/01/10 09:16:21;;;;;;;73.60;36.42;;;;;;;-0.34;84.44;100065.66;5474961;32;33983;-87
2022/01/10 09:19:24;;;;;;;69.78;35.15;;;;;;;-0.26;82.76;100073.38;5477735;32;34576;-87
2022/01/10 09:22:27;;;;;;;70.40;34.63;;;;;;;-0.24;81.50;100079.44;5483971;32;34053;-88
2022/01/10 09:25:30;;;;;;;68.00;34.28;;;;;;;-0.19;81.23;100075.03;5488523;32;35179;-88
2022/01/10 09:28:32;;;;;;;67.15;33.20;;;;;;;-0.14;79.73;100078.47;5486610;32;34776;-88
2022/01/10 09:31:35;;;;;;;62.58;31.45;;;;;;;-0.02;79.08;100080.09;5486118;32;33754;-88
2022/01/10 09:34:38;;;;;;;69.57;31.87;;;;;;;0.71;75.91;100080.09;5483116;32;34141;-87
2022/01/10 09:37:41;;;;;;;64.25;31.42;;;;;;;2.09;69.92;100076.94;5487371;32;34274;-88
2022/01/10 09:40:44;;;;;;;61.00;31.27;;;;;;;4.13;62.36;100073.06;5478012;32;35262;-88
2022/01/10 09:44:02;;;;;;;60.33;30.85;;;;;;;4.82;58.32;100071.06;5472824;32;33883;-88
2022/01/10 09:47:05;;;;;;;57.70;29.42;;;;;;;6.09;54.17;100073.97;5491792;32;33904;-88
2022/01/10 09:50:10;;;;;;;53.45;28.70;;;;;;;7.23;49.23;100070.53;5495084;32;34074;-89
2022/01/10 09:53:17;;;;;;;51.67;27.70;;;;;;;10.38;43.18;100056.72;5488888;32;34275;-92
2022/01/10 09:56:23;;;;;;;47.58;26.75;;;;;;;8.45;44.59;100070.66;5473558;32;33950;-92
2022/01/10 09:59:26;;;;;;;50.42;28.02;;;;;;;9.34;42.92;100061.22;5472804;32;34187;-88
2022/01/10 10:02:30;;;;;;;48.50;27.73;;;;;;;9.48;41.26;100061.37;5473583;32;34734;-90
2022/01/10 10:05:34;;;;;;;50.95;28.52;;;;;;;10.29;39.77;100062.53;5476707;32;34247;-88
2022/01/10 10:08:38;;;;;;;49.97;28.30;;;;;;;8.71;43.28;100071.25;5464506;32;32715;-89
2022/01/10 10:11:52;;;;;;;52.45;27.75;;;;;;;8.60;43.51;100067.31;5485747;32;33881;-88
2022/01/10 10:14:56;;;;;;;46.50;27.13;;;;;;;7.63;45.38;100054.81;5492979;32;34190;-88
2022/01/10 10:17:59;;;;;;;46.35;26.20;;;;;;;6.31;49.79;100057.37;5478356;32;33487;-87
2022/01/10 10:21:01;;;;;;;46.08;25.12;;;;;;;6.20;50.21;100055.97;5472444;32;34075;-90
2022/01/10 10:24:04;;;;;;;46.45;26.77;;;;;;;4.41;55.85;100058.28;5474903;32;34559;-88
2022/01/10 10:27:08;;;;;;;50.38;25.92;;;;;;;5.02;56.39;100062.56;5474099;32;33721;-89
2022/01/10 10:30:27;;;;;;;43.97;24.50;;;;;;;6.28;55.70;100058.34;5475628;32;34663;-88
2022/01/10 10:33:30;;;;;;;44.03;23.52;;;;;;;6.67;53.70;100056.91;5476488;32;33720;-88
2022/01/10 10:36:35;;;;;;;43.63;23.35;;;;;;;7.27;55.15;100058.94;5487243;32;33721;-88
2022/01/10 10:39:44;;;;;;;44.95;25.62;;;;;;;7.77;50.25;100058.63;5476719;32;34625;-89
2022/01/10 10:42:47;;;;;;;43.65;22.75;;;;;;;6.69;50.90;100049.78;5476288;32;34749;-89
2022/01/10 10:45:49;;;;;;;36.42;20.42;;;;;;;5.73;52.66;100058.53;5476385;32;33814;-87
2022/01/10 10:48:57;;;;;;;31.30;18.27;;;;;;;6.16;51.67;100053.53;5483481;32;34119;-90
2022/01/10 10:52:05;;;;;;;23.42;14.55;;;;;;;6.02;49.95;100059.25;5487186;32;34280;-90
2022/01/10 10:55:13;;;;;;;29.85;16.23;;;;;;;5.44;50.34;100069.12;5481495;32;34847;-89
2022/01/10 10:58:18;;;;;;;26.02;14.65;;;;;;;5.53;50.44;100060.06;5498096;32;34248;-90
2022/01/10 11:16:46;;;;;;;22.30;13.20;;;;;;;5.10;49.05;100068.47;5321584;30;20136;-89
2022/01/10 11:20:13;;;;;;;25.98;13.68;;;;;;;4.62;51.64;100067.28;5492092;32;34491;-89
2022/01/10 11:23:17;;;;;;;26.33;14.87;;;;;;;4.76;50.88;100072.13;5492124;32;34911;-89
2022/01/10 11:26:20;;;;;;;24.02;14.75;;;;;;;5.54;49.08;100074.94;5492736;32;34583;-89
2022/01/10 11:29:28;;;;;;;25.10;14.43;;;;;;;7.42;43.38;100080.31;5492764;32;34982;-89
2022/01/10 11:32:51;;;;;;;25.08;15.00;;;;;;;6.71;44.27;100076.09;5493000;32;34313;-89
2022/01/10 11:36:15;;;;;;;23.98;13.93;;;;;;;5.25;47.95;100076.75;5487623;32;34929;-88
2022/01/10 11:39:18;;;;;;;21.35;12.88;;;;;;;4.77;49.18;100076.47;5501885;32;33558;-87
2022/01/10 11:42:22;;;;;;;22.85;13.13;;;;;;;4.91;48.92;100090.97;5494865;32;34371;-88
2022/01/10 11:45:26;;;;;;;22.00;12.90;;;;;;;6.99;43.80;100078.50;5493149;32;34163;-86
2022/01/10 11:48:43;;;;;;;24.17;12.65;;;;;;;9.05;38.52;100074.91;5495481;32;34579;-87
2022/01/10 11:51:45;;;;;;;21.58;11.68;;;;;;;7.39;41.28;100083.09;5493031;32;34027;-89
2022/01/10 11:54:52;;;;;;;19.73;11.82;;;;;;;5.34;44.05;100092.22;5496716;32;33943;-88
2022/01/10 11:58:05;;;;;;;19.65;11.50;;;;;;;4.62;46.42;100090.09;5503923;32;33826;-89
2022/01/10 12:01:07;;;;;;;19.65;12.30;;;;;;;4.28;48.13;100094.56;5492832;32;34014;-89
2022/01/10 12:04:11;;;;;;;19.45;11.32;;;;;;;4.24;48.46;100092.91;5492896;32;34386;-90
2022/01/10 12:07:17;;;;;;;20.70;11.18;;;;;;;4.41;47.85;100102.94;5493313;32;33731;-89
2022/01/10 12:10:21;;;;;;;19.08;10.98;;;;;;;4.13;47.68;100099.31;5487035;32;33982;-90
2022/01/10 12:13:28;;;;;;;19.90;11.30;;;;;;;3.92;48.30;100106.00;5506303;32;34686;-89
2022/01/10 12:16:31;;;;;;;17.75;10.43;;;;;;;3.99;48.88;100109.34;5557467;27;35031;-89
2022/01/10 12:19:34;;;;;;;18.02;10.35;;;;;;;3.97;47.89;100111.16;5504718;32;34887;-89
2022/01/10 12:30:10;;;;;;;22.52;10.85;;;;;;;4.00;48.29;100109.31;730586;30;20417;-88
2022/01/10 12:33:13;;;;;;;20.12;11.52;;;;;;;3.88;48.62;100109.62;5506910;32;32032;-89
2022/01/10 12:36:17;;;;;;;17.77;10.63;;;;;;;3.89;48.67;100111.34;5499801;32;33982;-88
2022/01/10 12:39:26;;;;;;;17.83;10.20;;;;;;;3.96;48.37;100122.53;5509848;32;33367;-89
2022/01/10 12:42:29;;;;;;;20.23;10.35;;;;;;;3.83;48.33;100129.88;5500360;32;32918;-88
2022/01/10 12:45:33;;;;;;;17.70;10.18;;;;;;;3.73;48.39;100130.09;5509407;32;33676;-87
2022/01/10 12:48:38;;;;;;;20.42;10.77;;;;;;;3.85;47.85;100122.81;5508629;32;35098;-88
2022/01/10 12:51:47;;;;;;;17.45;9.75;;;;;;;3.95;48.19;100133.94;5505609;32;35367;-88
2022/01/10 12:54:50;;;;;;;18.98;8.85;;;;;;;3.88;47.53;100136.72;5509774;32;35119;-88
2022/01/10 12:57:55;;;;;;;13.20;8.15;;;;;;;3.81;47.40;100142.19;5573189;27;35402;-89
2022/01/10 13:00:57;;;;;;;14.73;8.18;;;;;;;3.80;47.16;100146.56;5482911;32;35269;-88
2022/01/10 13:04:02;;;;;;;15.32;8.98;;;;;;;3.88;46.79;100146.38;5474565;32;34361;-89
2022/01/10 13:07:09;;;;;;;13.62;8.68;;;;;;;3.95;46.62;100157.53;5533444;27;35078;-88
2022/01/10 13:10:52;;;;;;;12.48;7.57;;;;;;;4.02;46.41;100159.13;4390421;27;20465;-88
2022/01/10 13:17:34;;;;;;;14.15;8.30;;;;;;;3.81;46.28;100171.03;5307532;30;20102;-90
2022/01/10 13:20:38;;;;;;;19.40;9.85;;;;;;;3.83;47.29;100187.59;5494034;32;34004;-88
2022/01/10 13:23:41;;;;;;;16.20;9.35;;;;;;;3.81;48.42;100190.25;5506985;32;34575;-87
2022/01/10 13:27:03;;;;;;;15.18;8.95;;;;;;;3.94;48.23;100193.44;5488825;32;34395;-88
2022/01/10 13:30:14;;;;;;;15.32;8.45;;;;;;;3.94;48.28;100201.31;5486829;32;34083;-88
2022/01/10 13:33:18;;;;;;;16.60;9.10;;;;;;;3.87;48.06;100197.13;5484348;32;34365;-88
2022/01/10 13:36:21;;;;;;;14.52;7.82;;;;;;;3.90;47.65;100197.91;5489668;32;34659;-88
2022/01/10 13:47:11;;;;;;;17.25;8.55;;;;;;;3.72;47.96;100211.50;1030522;26;21458;-89
2022/01/10 13:50:22;;;;;;;13.18;7.57;;;;;;;3.78;47.87;100214.81;5515821;32;33279;-88
2022/01/10 13:53:30;;;;;;;12.27;7.47;;;;;;;3.63;47.95;100210.78;5506904;32;34286;-89
2022/01/10 13:56:33;;;;;;;11.75;7.22;;;;;;;3.61;48.00;100216.97;5513795;32;34101;-88
2022/01/10 13:59:37;;;;;;;11.00;7.15;;;;;;;3.67;47.69;100213.34;5503153;32;34219;-87
2022/01/10 14:02:43;;;;;;;14.10;7.87;;;;;;;3.62;47.67;100218.72;5520895;32;34331;-88
2022/01/10 14:05:46;;;;;;;15.13;7.75;;;;;;;3.57;47.99;100228.44;5498661;32;32905;-87
2022/01/10 14:09:07;;;;;;;12.93;7.68;;;;;;;3.54;48.07;100228.50;5546526;26;34173;-87
2022/01/10 14:12:10;;;;;;;12.25;7.37;;;;;;;3.59;48.38;100235.38;5521753;32;34212;-87
2022/01/10 14:15:13;;;;;;;11.20;7.03;;;;;;;3.58;48.25;100236.25;5592627;26;35380;-88
2022/01/10 14:18:16;;;;;;;13.82;7.12;;;;;;;3.49;48.67;100244.34;5528073;32;34901;-88
2022/01/10 14:21:20;;;;;;;9.13;6.10;;;;;;;3.39;48.80;100259.44;5572096;26;34145;-89
2022/01/10 14:24:23;;;;;;;10.38;6.25;;;;;;;3.39;48.58;100262.06;5534825;26;35293;-89
2022/01/10 14:27:26;;;;;;;10.82;6.40;;;;;;;3.39;48.28;100259.44;5512101;32;34203;-87
2022/01/10 14:30:29;;;;;;;10.55;5.85;;;;;;;3.33;49.35;100263.03;5560297;26;34225;-87
2022/01/10 14:33:32;;;;;;;11.00;6.57;;;;;;;3.24;49.71;100265.88;5505282;32;34049;-87
2022/01/10 14:36:35;;;;;;;12.05;6.22;;;;;;;3.27;49.30;100271.03;5506752;32;35932;-88
2022/01/10 14:39:38;;;;;;;10.32;5.75;;;;;;;3.21;49.40;100281.66;5490185;32;33929;-88
2022/01/10 14:42:41;;;;;;;11.85;6.55;;;;;;;3.17;49.52;100280.84;5505016;32;34174;-88
2022/01/10 14:45:44;;;;;;;9.82;5.68;;;;;;;3.14;49.46;100280.03;5508709;32;33907;-89
2022/01/10 14:48:47;;;;;;;9.05;5.72;;;;;;;3.10;49.37;100280.13;5503755;32;35357;-88
2022/01/10 14:51:50;;;;;;;9.85;5.82;;;;;;;3.06;49.78;100290.69;5502472;32;33515;-88
2022/01/10 14:54:53;;;;;;;9.05;5.87;;;;;;;2.90;50.21;100297.97;5500965;32;35317;-89
2022/01/10 14:57:55;;;;;;;11.15;5.90;;;;;;;2.76;50.54;100296.50;5488334;32;35068;-89
2022/01/10 15:01:05;;;;;;;11.00;5.75;;;;;;;2.77;50.57;100308.69;5505765;32;35237;-90
2022/01/10 15:04:08;;;;;;;9.55;5.68;;;;;;;2.67;51.04;100310.63;5492105;32;34464;-89
2022/01/10 15:07:12;;;;;;;9.02;5.43;;;;;;;2.60;51.17;100321.22;5498351;32;34327;-90
2022/01/10 15:10:15;;;;;;;11.63;5.55;;;;;;;2.58;51.39;100323.00;5503836;32;34798;-88
2022/01/10 15:13:19;;;;;;;10.85;5.37;;;;;;;2.59;51.45;100333.47;5494650;32;35248;-90
2022/01/10 15:16:21;;;;;;;9.00;5.40;;;;;;;2.46;52.01;100335.44;5502826;32;35268;-90
2022/01/10 15:19:25;;;;;;;8.85;5.20;;;;;;;2.40;52.25;100352.13;5493629;32;35313;-90
2022/01/10 15:22:28;;;;;;;10.20;5.93;;;;;;;2.33;52.58;100353.09;5490758;32;34856;-90
2022/01/10 15:25:31;;;;;;;22.02;11.32;;;;;;;2.15;53.58;100360.34;5508085;32;34297;-90
2022/01/10 15:36:13;;;;;;;36.95;17.90;;;;;;;1.75;63.50;100387.06;882817;27;20354;-89
2022/01/10 15:39:16;;;;;;;33.35;17.50;;;;;;;1.62;65.61;100383.75;5597940;27;34252;-90
2022/01/10 15:42:20;;;;;;;44.03;20.27;;;;;;;1.56;66.28;100392.53;5537069;27;35980;-90
2022/01/10 15:45:23;;;;;;;38.85;20.88;;;;;;;1.38;67.98;100393.63;5588319;26;34708;-91
2022/01/10 15:48:27;;;;;;;40.42;20.52;;;;;;;1.30;68.61;100406.78;5557236;26;35233;-90
2022/01/10 15:51:29;;;;;;;40.28;20.20;;;;;;;1.20;69.53;100408.62;5548882;27;34509;-90
2022/01/10 15:54:32;;;;;;;43.65;19.73;;;;;;;1.16;70.44;100406.91;5585310;26;34801;-90
2022/01/10 15:57:35;;;;;;;33.78;19.25;;;;;;;1.10;71.75;100417.41;5490964;32;34093;-91
2022/01/10 16:00:40;;;;;;;36.47;19.42;;;;;;;1.09;71.20;100428.75;5500742;32;34187;-90
2022/01/10 16:03:45;;;;;;;39.55;19.50;;;;;;;1.01;71.41;100430.59;5508080;27;33865;-91
2022/01/10 16:06:48;;;;;;;35.83;18.48;;;;;;;0.95;72.07;100434.09;5579221;26;33875;-90
2022/01/10 16:17:43;;;;;;;37.83;19.17;;;;;;;0.86;72.61;100452.47;5539435;26;20117;-90
2022/01/10 16:20:46;;;;;;;33.80;18.37;;;;;;;0.72;73.48;100465.66;5494840;32;33987;-91
2022/01/10 16:23:49;;;;;;;34.95;18.15;;;;;;;0.69;73.44;100468.28;5494458;32;34402;-91
2022/01/10 16:26:52;;;;;;;36.80;18.20;;;;;;;0.63;73.75;100475.28;5498807;32;33867;-91
2022/01/10 16:29:54;;;;;;;36.17;17.87;;;;;;;0.58;73.69;100477.06;5558959;27;36065;-89
2022/01/10 16:33:00;;;;;;;36.78;18.17;;;;;;;0.59;73.45;100478.78;5563776;26;33971;-90
2022/01/10 16:36:04;;;;;;;35.25;17.40;;;;;;;0.52;73.81;100477.94;5512393;32;35140;-89
2022/01/10 16:39:07;;;;;;;34.50;18.08;;;;;;;0.48;73.75;100488.44;5513310;32;34731;-89
2022/01/10 16:42:10;;;;;;;32.33;17.08;;;;;;;0.36;73.98;100492.84;5517050;32;34080;-89
2022/01/10 16:45:13;;;;;;;32.55;17.17;;;;;;;0.31;74.47;100497.25;5514147;26;34429;-90
2022/01/10 16:48:16;;;;;;;31.40;17.05;;;;;;;0.25;74.78;100498.13;5481287;32;33951;-90
2022/01/10 16:51:21;;;;;;;30.50;16.58;;;;;;;0.23;74.78;100507.72;5502504;32;33791;-90
